Time;durP1;ratioP1;P1;durP2;ratioP2;P2;SDS_P1;SDS_P2;PMS_P1;PMS_P2;Temp;Humidity;BMP_temperature;BMP_pressure;BME280_temperature;BME280_humidity;BME280_pressure;Samples;Min_cycle;Max_cycle;Signal;HPM_P1;HPM_P2
2022/02/25 00:00:49;;;;;;;;;;;;;;;7.17;51.86;97747.97;1759143;80;26233;-85
2022/02/25 00:03:15;;;;;;;;;;;;;;;7.17;51.85;97760.52;1767285;80;24388;-85
2022/02/25 00:05:42;;;;;;;;;;;;;;;7.17;51.82;97746.20;1762534;80;20222;-85
2022/02/25 00:08:08;;;;;;;;;;;;;;;7.17;51.83;97736.27;1754428;80;24756;-84
2022/02/25 00:10:35;;;;;;;;;;;;;;;7.17;51.82;97734.50;1763502;80;22086;-84
2022/02/25 00:13:01;;;;;;;;;;;;;;;7.18;51.84;97736.64;1757750;80;26000;-84
2022/02/25 00:15:27;;;;;;;;;;;;;;;7.21;51.82;97736.41;1760411;80;24517;-84
2022/02/25 00:17:54;;;;;;;;;;;;;;;7.22;51.82;97735.48;1759040;80;20269;-85
2022/02/25 00:20:20;;;;;;;;;;;;;;;7.22;51.82;97740.23;1753115;80;24787;-84
2022/02/25 00:22:46;;;;;;;;;;;;;;;7.22;51.82;97750.63;1761328;80;22036;-84
2022/02/25 00:25:17;;;;;;;;;;;;;;;7.23;51.81;97756.67;1763054;80;26053;-84
2022/02/25 00:27:44;;;;;;;;;;;;;;;7.25;51.83;97758.72;1746383;80;24127;-83
2022/02/25 00:30:13;;;;;;;;;;;;;;;7.28;51.81;97773.65;1764366;80;20269;-84
2022/02/25 00:32:41;;;;;;;;;;;;;;;7.28;51.80;97771.52;1760732;80;25631;-84
2022/02/25 00:35:07;;;;;;;;;;;;;;;7.23;51.78;97775.73;1760937;80;22070;-84
2022/02/25 00:37:36;;;;;;;;;;;;;;;7.23;51.79;97790.50;1759106;80;21524;-84
2022/02/25 00:40:02;;;;;;;;;;;;;;;7.24;51.77;97789.11;1756364;80;24470;-84
2022/02/25 00:42:28;;;;;;;;;;;;;;;7.26;51.78;97783.31;1757678;80;20481;-83
2022/02/25 00:44:54;;;;;;;;;;;;;;;7.27;51.81;97786.75;1766644;80;24718;-83
2022/02/25 00:47:21;;;;;;;;;;;;;;;7.25;51.82;97783.44;1756837;79;22799;-84
2022/02/25 00:49:47;;;;;;;;;;;;;;;7.26;51.79;97792.42;1762782;80;26163;-84
2022/02/25 00:52:14;;;;;;;;;;;;;;;7.24;51.83;97789.11;1763404;80;24507;-84
2022/02/25 00:54:44;;;;;;;;;;;;;;;7.24;51.84;97783.07;1759175;80;20157;-84
2022/02/25 00:57:10;;;;;;;;;;;;;;;7.27;51.83;97780.25;1753000;80;24745;-84
2022/02/25 00:59:36;;;;;;;;;;;;;;;7.25;51.86;97781.67;1762771;80;21910;-85
2022/02/25 01:02:02;;;;;;;;;;;;;;;7.25;51.86;97790.78;1761796;80;25951;-85
2022/02/25 01:04:29;;;;;;;;;;;;;;;7.27;51.88;97794.56;1756772;80;24500;-86
2022/02/25 01:06:55;;;;;;;;;;;;;;;7.29;51.92;97792.70;1753578;80;20507;-85
2022/02/25 01:09:21;;;;;;;;;;;;;;;7.28;51.96;97793.16;1743326;79;24729;-84
2022/02/25 01:11:50;;;;;;;;;;;;;;;7.28;51.99;97790.56;1732257;82;21953;-84
2022/02/25 01:14:16;;;;;;;;;;;;;;;7.30;52.04;97794.38;1725422;82;26115;-85
2022/02/25 01:16:42;;;;;;;;;;;;;;;7.32;52.10;97791.18;1729036;82;24389;-84
2022/02/25 01:19:12;;;;;;;;;;;;;;;7.36;52.19;97792.66;1731184;82;20228;-83
2022/02/25 01:21:36;;;;;;;;;;;;;;;7.38;52.27;97790.77;1728611;82;24838;-84
2022/02/25 01:24:02;;;;;;;;;;;;;;;7.40;52.31;97783.70;1726896;82;20304;-84
2022/02/25 01:26:28;;;;;;;;;;;;;;;7.42;52.36;97789.63;1723893;82;25942;-83
2022/02/25 01:28:54;;;;;;;;;;;;;;;7.38;52.40;97787.70;1706596;82;24390;-84
2022/02/25 01:31:23;;;;;;;;;;;;;;;7.42;52.46;97787.02;1732660;81;20171;-84
2022/02/25 01:33:49;;;;;;;;;;;;;;;7.45;52.54;97783.77;1731968;82;25526;-84
2022/02/25 01:36:16;;;;;;;;;;;;;;;7.45;52.57;97788.97;1731670;82;21980;-84
2022/02/25 01:38:42;;;;;;;;;;;;;;;7.40;52.57;97780.64;1731859;82;26057;-84
2022/02/25 01:41:08;;;;;;;;;;;;;;;7.41;52.60;97781.01;1729268;82;24421;-83
2022/02/25 01:43:34;;;;;;;;;;;;;;;7.43;52.62;97771.77;1733806;81;20308;-84
2022/02/25 01:46:00;;;;;;;;;;;;;;;7.43;52.66;97771.30;1739345;81;24720;-83
2022/02/25 01:48:26;;;;;;;;;;;;;;;7.45;52.67;97769.91;1729926;82;22092;-83
2022/02/25 01:50:52;;;;;;;;;;;;;;;7.41;52.71;97771.90;1728082;81;25931;-83
2022/02/25 01:53:20;;;;;;;;;;;;;;;7.41;52.73;97773.66;1732203;81;24431;-84
2022/02/25 01:55:47;;;;;;;;;;;;;;;7.38;52.76;97776.45;1736741;81;20151;-84
2022/02/25 01:58:14;;;;;;;;;;;;;;;7.33;52.75;97769.43;1726338;82;24232;-84
2022/02/25 02:00:41;;;;;;;;;;;;;;;7.35;52.78;97768.87;1713587;82;22142;-83
2022/02/25 02:03:07;;;;;;;;;;;;;;;7.34;52.81;97768.50;1743954;80;26004;-83
2022/02/25 02:05:33;;;;;;;;;;;;;;;7.31;52.85;97769.52;1749326;80;20515;-83
2022/02/25 02:07:59;;;;;;;;;;;;;;;7.28;52.87;97774.11;1741113;80;20334;-84
2022/02/25 02:10:26;;;;;;;;;;;;;;;7.20;52.90;97766.00;1726345;80;25745;-83
2022/02/25 02:12:52;;;;;;;;;;;;;;;7.19;52.93;97772.97;1756237;80;22735;-83
2022/02/25 02:15:20;;;;;;;;;;;;;;;7.15;52.94;97763.68;1751439;79;26123;-83
2022/02/25 02:17:46;;;;;;;;;;;;;;;7.11;52.98;97765.66;1753412;81;24567;-83
2022/02/25 02:20:12;;;;;;;;;;;;;;;7.09;53.02;97763.62;1756807;80;20283;-83
2022/02/25 02:22:38;;;;;;;;;;;;;;;7.04;53.07;97767.46;1760358;81;24734;-83
2022/02/25 02:25:04;;;;;;;;;;;;;;;7.00;53.12;97760.80;1760321;80;21907;-84
2022/02/25 02:30:16;;;;;;;;;;;;;;;6.96;53.22;97763.25;1743020;81;24613;-83
2022/02/25 02:32:42;;;;;;;;;;;;;;;6.93;53.27;97766.88;1746445;81;20425;-84
2022/02/25 02:35:09;;;;;;;;;;;;;;;6.85;53.31;97769.16;1742459;81;24817;-83
2022/02/25 02:37:39;;;;;;;;;;;;;;;6.80;53.33;97767.33;1740873;81;22037;-84
2022/02/25 02:40:06;;;;;;;;;;;;;;;6.78;53.40;97773.55;1761168;80;26944;-83
2022/02/25 02:42:32;;;;;;;;;;;;;;;6.79;53.48;97776.52;1745721;81;24435;-83
2022/02/25 02:44:59;;;;;;;;;;;;;;;6.76;53.55;97779.33;1756702;80;20237;-83
2022/02/25 02:47:30;;;;;;;;;;;;;;;6.72;53.61;97776.91;1760523;80;24803;-84
2022/02/25 02:49:57;;;;;;;;;;;;;;;6.73;53.66;97778.59;1766834;80;21939;-83
2022/02/25 02:52:23;;;;;;;;;;;;;;;6.73;53.73;97781.65;1754840;80;25963;-83
2022/02/25 02:54:49;;;;;;;;;;;;;;;6.71;53.79;97781.73;1758177;79;24489;-84
2022/02/25 02:57:15;;;;;;;;;;;;;;;6.69;53.87;97784.09;1759096;80;20221;-83
2022/02/25 02:59:41;;;;;;;;;;;;;;;6.67;53.94;97784.17;1759887;80;24820;-83
2022/02/25 03:02:07;;;;;;;;;;;;;;;6.68;54.02;97782.41;1753572;80;22182;-82
2022/02/25 03:04:33;;;;;;;;;;;;;;;6.70;54.08;97787.06;1755934;80;25941;-82
2022/02/25 03:07:00;;;;;;;;;;;;;;;6.71;54.15;97781.73;1759957;79;24260;-82
2022/02/25 03:09:26;;;;;;;;;;;;;;;6.73;54.27;97780.34;1745737;80;20455;-82
2022/02/25 03:11:54;;;;;;;;;;;;;;;6.69;54.33;97782.33;1733104;82;24899;-83
2022/02/25 03:14:19;;;;;;;;;;;;;;;6.64;54.38;97773.98;1736875;82;22010;-82
2022/02/25 03:16:45;;;;;;;;;;;;;;;6.65;54.49;97778.27;1730799;82;25966;-82
2022/02/25 03:19:12;;;;;;;;;;;;;;;6.60;54.58;97769.90;1741708;81;24475;-82
2022/02/25 03:21:38;;;;;;;;;;;;;;;6.53;54.62;97779.51;1730955;81;20829;-81
2022/02/25 03:24:04;;;;;;;;;;;;;;;6.53;54.68;97779.51;1721450;82;24785;-81
2022/02/25 03:26:30;;;;;;;;;;;;;;;6.54;54.74;97784.62;1735812;81;22065;-83
2022/02/25 03:28:56;;;;;;;;;;;;;;;6.51;54.79;97784.80;1734417;81;26198;-82
2022/02/25 03:31:22;;;;;;;;;;;;;;;6.45;54.84;97786.95;1731671;82;20281;-82
2022/02/25 03:33:50;;;;;;;;;;;;;;;6.42;54.92;97783.25;1729618;82;20224;-82
2022/02/25 03:36:19;;;;;;;;;;;;;;;6.44;55.02;97787.41;1730443;82;25055;-83
2022/02/25 03:38:45;;;;;;;;;;;;;;;6.44;55.13;97806.06;1736519;81;22151;-83
2022/02/25 03:41:12;;;;;;;;;;;;;;;6.49;55.26;97798.84;1733826;81;25968;-83
2022/02/25 03:43:39;;;;;;;;;;;;;;;6.51;55.37;97802.16;1732156;81;25322;-83
2022/02/25 03:46:05;;;;;;;;;;;;;;;6.46;55.46;97795.95;1727966;82;20310;-83
2022/02/25 03:48:34;;;;;;;;;;;;;;;6.42;55.54;97791.89;1730517;82;24801;-83
2022/02/25 03:51:00;;;;;;;;;;;;;;;6.41;55.63;97799.77;1720190;82;22205;-83
2022/02/25 03:53:32;;;;;;;;;;;;;;;6.49;55.80;97811.84;1729788;82;26757;-82
2022/02/25 03:55:59;;;;;;;;;;;;;;;6.58;55.98;97815.14;1720690;82;24465;-84
2022/02/25 03:58:25;;;;;;;;;;;;;;;6.67;56.13;97823.64;1724585;82;20239;-84
2022/02/25 04:00:51;;;;;;;;;;;;;;;6.71;56.28;97826.41;1724386;82;24719;-84
2022/02/25 04:03:17;;;;;;;;;;;;;;;6.72;56.40;97834.12;1725069;82;22099;-83
2022/02/25 04:05:43;;;;;;;;;;;;;;;6.77;56.52;97836.42;1727465;82;26032;-83
2022/02/25 04:08:09;;;;;;;;;;;;;;;6.80;56.64;97838.84;1723995;82;24585;-82
2022/02/25 04:10:36;;;;;;;;;;;;;;;6.84;56.74;97840.30;1725552;81;20212;-82
2022/02/25 04:13:04;;;;;;;;;;;;;;;6.87;56.82;97857.03;1738334;80;25497;-82
2022/02/25 04:15:30;;;;;;;;;;;;;;;6.92;56.91;97858.87;1761716;80;22038;-83
2022/02/25 04:17:56;;;;;;;;;;;;;;;6.95;57.00;97857.36;1753085;81;25784;-82
2022/02/25 04:20:26;;;;;;;;;;;;;;;6.96;57.06;97855.59;1758513;80;24456;-83
2022/02/25 04:22:52;;;;;;;;;;;;;;;6.95;57.11;97851.31;1760821;80;20225;-83
2022/02/25 04:25:18;;;;;;;;;;;;;;;6.95;57.17;97861.25;1761662;80;20402;-83
2022/02/25 04:27:44;;;;;;;;;;;;;;;6.96;57.24;97860.80;1757757;80;22063;-83
2022/02/25 04:30:11;;;;;;;;;;;;;;;6.97;57.31;97873.70;1759967;80;27358;-83
2022/02/25 04:32:39;;;;;;;;;;;;;;;6.97;57.38;97878.91;1766439;80;24556;-83
2022/02/25 04:35:07;;;;;;;;;;;;;;;7.00;57.46;97893.01;1745261;81;20217;-83
2022/02/25 04:37:33;;;;;;;;;;;;;;;7.00;57.51;97906.02;1753825;80;25713;-83
2022/02/25 04:39:59;;;;;;;;;;;;;;;6.97;57.56;97907.52;1762429;80;22107;-83
2022/02/25 04:42:26;;;;;;;;;;;;;;;6.95;57.59;97900.27;1740218;78;25971;-83
2022/02/25 04:44:52;;;;;;;;;;;;;;;6.96;57.63;97908.45;1757397;81;24447;-83
2022/02/25 04:47:18;;;;;;;;;;;;;;;6.95;57.68;97911.14;1755457;80;20320;-83
2022/02/25 04:49:44;;;;;;;;;;;;;;;6.92;57.74;97910.89;1762235;80;24740;-83
2022/02/25 04:52:12;;;;;;;;;;;;;;;6.92;57.79;97911.35;1750941;80;21988;-83
2022/02/25 04:54:38;;;;;;;;;;;;;;;6.92;57.86;97924.36;1764249;79;25987;-83
2022/02/25 04:57:04;;;;;;;;;;;;;;;6.89;57.90;97922.77;1763212;80;24672;-83
2022/02/25 04:59:30;;;;;;;;;;;;;;;6.92;57.98;97913.48;1763210;80;20312;-83
2022/02/25 05:01:57;;;;;;;;;;;;;;;6.92;58.07;97919.16;1760140;79;24750;-83
2022/02/25 05:04:23;;;;;;;;;;;;;;;6.89;58.12;97921.47;1762100;80;21993;-82
2022/02/25 05:06:50;;;;;;;;;;;;;;;6.89;58.21;97924.07;1760596;80;25831;-82
2022/02/25 05:09:19;;;;;;;;;;;;;;;6.88;58.31;97922.86;1748657;80;24718;-83
2022/02/25 05:11:47;;;;;;;;;;;;;;;6.87;58.41;97921.21;1747965;80;20233;-82
2022/02/25 05:22:26;;;;;;;;;;;;;;;6.84;58.88;97936.53;1709658;83;24541;-81
2022/02/25 05:24:52;;;;;;;;;;;;;;;6.82;58.98;97942.28;1709268;83;20303;-82
2022/02/25 05:27:20;;;;;;;;;;;;;;;6.82;59.12;97933.67;1710769;82;24798;-85
2022/02/25 05:29:48;;;;;;;;;;;;;;;6.82;59.24;97934.97;1713394;83;22811;-85
2022/02/25 05:32:14;;;;;;;;;;;;;;;6.82;59.35;97955.28;1711805;83;26007;-84
2022/02/25 05:34:40;;;;;;;;;;;;;;;6.81;59.50;97955.41;1708942;83;24564;-85
2022/02/25 05:37:06;;;;;;;;;;;;;;;6.80;59.62;97938.13;1712012;83;20761;-85
2022/02/25 05:39:32;;;;;;;;;;;;;;;6.81;59.76;97933.30;1710328;81;24731;-84
2022/02/25 05:42:02;;;;;;;;;;;;;;;6.83;59.91;97951.77;1754467;81;22650;-84
2022/02/25 05:44:29;;;;;;;;;;;;;;;6.82;60.06;97985.19;1759048;80;26047;-84
2022/02/25 05:46:56;;;;;;;;;;;;;;;6.81;60.23;98004.81;1752838;81;24450;-84
2022/02/25 05:49:23;;;;;;;;;;;;;;;6.77;60.40;98008.05;1749218;81;20525;-84
2022/02/25 05:51:49;;;;;;;;;;;;;;;6.75;60.62;98007.33;1758425;80;24812;-84
2022/02/25 05:54:15;;;;;;;;;;;;;;;6.75;60.86;98017.73;1759192;80;20351;-84
2022/02/25 05:56:41;;;;;;;;;;;;;;;6.70;61.11;98015.41;1762403;80;26268;-84
2022/02/25 05:59:07;;;;;;;;;;;;;;;6.67;61.36;98022.55;1760704;80;20315;-85
2022/02/25 06:01:33;;;;;;;;;;;;;;;6.64;61.62;98026.64;1754008;80;20214;-85
2022/02/25 06:03:59;;;;;;;;;;;;;;;6.64;61.91;98042.24;1753694;81;24748;-85
2022/02/25 06:06:25;;;;;;;;;;;;;;;6.58;62.14;98056.45;1754440;80;20236;-85
2022/02/25 06:08:51;;;;;;;;;;;;;;;6.55;62.37;98064.41;1757177;80;26042;-86
2022/02/25 06:11:17;;;;;;;;;;;;;;;6.54;62.64;98083.56;1737486;81;24621;-86
2022/02/25 06:13:45;;;;;;;;;;;;;;;6.53;62.91;98092.28;1727819;82;20229;-86
2022/02/25 06:16:12;;;;;;;;;;;;;;;6.52;63.20;98109.26;1728234;82;24589;-86
2022/02/25 06:18:40;;;;;;;;;;;;;;;6.44;63.57;98110.16;1728920;82;21937;-86
2022/02/25 06:21:05;;;;;;;;;;;;;;;6.34;63.93;98120.72;1735073;82;25504;-87
2022/02/25 06:23:31;;;;;;;;;;;;;;;6.29;64.38;98131.38;1727824;82;20254;-87
2022/02/25 06:25:58;;;;;;;;;;;;;;;6.15;64.88;98139.98;1738332;82;20876;-87
2022/02/25 06:28:24;;;;;;;;;;;;;;;6.04;65.38;98154.48;1734445;82;24899;-86
2022/02/25 06:30:50;;;;;;;;;;;;;;;5.92;65.87;98172.89;1734113;82;22018;-87
2022/02/25 06:33:16;;;;;;;;;;;;;;;5.79;66.43;98177.88;1725402;82;21039;-87
2022/02/25 06:35:49;;;;;;;;;;;;;;;5.58;67.12;98184.23;1725227;82;24522;-87
2022/02/25 06:38:15;;;;;;;;;;;;;;;5.32;67.75;98216.77;1723280;82;20227;-88
2022/02/25 06:40:41;;;;;;;;;;;;;;;5.08;68.33;98226.25;1724547;82;24805;-87
2022/02/25 06:43:07;;;;;;;;;;;;;;;4.87;68.87;98240.69;1732867;80;20355;-87
2022/02/25 06:45:34;;;;;;;;;;;;;;;4.68;69.35;98244.28;1730910;82;25967;-87
2022/02/25 06:48:00;;;;;;;;;;;;;;;4.51;69.81;98242.05;1735731;81;24700;-87
2022/02/25 06:50:26;;;;;;;;;;;;;;;4.45;70.33;98246.23;1734516;82;20446;-87
2022/02/25 06:52:53;;;;;;;;;;;;;;;4.34;70.83;98247.66;1728383;82;24763;-87
2022/02/25 06:55:19;;;;;;;;;;;;;;;4.27;71.36;98249.70;1723803;82;22025;-88
2022/02/25 06:57:45;;;;;;;;;;;;;;;4.22;71.86;98262.02;1712011;82;26042;-87
2022/02/25 07:00:17;;;;;;;;;;;;;;;4.23;72.40;98271.94;1725619;82;24463;-88
2022/02/25 07:02:42;;;;;;;;;;;;;;;4.20;72.92;98281.52;1732079;82;20238;-86
2022/02/25 07:05:08;;;;;;;;;;;;;;;4.17;73.42;98289.44;1726894;82;24833;-86
2022/02/25 07:07:36;;;;;;;;;;;;;;;4.18;73.95;98296.76;1735929;82;20150;-84
2022/02/25 07:10:07;;;;;;;;;;;;;;;4.15;74.42;98299.02;1722581;82;21086;-85
2022/02/25 07:12:30;;;;;;;;;;;;;;;4.09;74.84;98295.41;1748519;80;24601;-86
2022/02/25 07:14:56;;;;;;;;;;;;;;;4.04;75.28;98302.55;1761245;81;20432;-86
2022/02/25 07:17:22;;;;;;;;;;;;;;;3.93;75.64;98309.16;1760553;81;24828;-86
2022/02/25 07:19:48;;;;;;;;;;;;;;;3.91;76.01;98319.57;1755610;80;22108;-85
2022/02/25 07:22:14;;;;;;;;;;;;;;;3.90;76.45;98337.75;1758289;79;26011;-85
2022/02/25 07:24:41;;;;;;;;;;;;;;;3.86;76.90;98352.59;1767031;80;24496;-85
2022/02/25 07:27:07;;;;;;;;;;;;;;;3.84;77.29;98347.08;1765025;80;20227;-86
2022/02/25 07:29:33;;;;;;;;;;;;;;;3.79;77.69;98357.19;1752240;81;24753;-85
2022/02/25 07:31:59;;;;;;;;;;;;;;;3.76;78.05;98362.97;1769773;81;22051;-86
2022/02/25 07:34:26;;;;;;;;;;;;;;;3.67;78.39;98364.64;1758147;81;26012;-86
2022/02/25 07:36:52;;;;;;;;;;;;;;;3.60;78.68;98372.30;1757739;80;24308;-85
2022/02/25 07:39:18;;;;;;;;;;;;;;;3.60;79.03;98364.05;1760113;80;20366;-85
2022/02/25 07:41:44;;;;;;;;;;;;;;;3.67;79.49;98366.77;1753712;80;24678;-85
2022/02/25 07:44:10;;;;;;;;;;;;;;;3.69;79.87;98371.44;1761968;81;22029;-85
2022/02/25 07:46:36;;;;;;;;;;;;;;;3.73;80.24;98374.28;1762024;80;26126;-85
2022/02/25 07:49:03;;;;;;;;;;;;;;;3.82;80.62;98379.98;1756050;80;24453;-86
2022/02/25 07:51:30;;;;;;;;;;;;;;;3.87;80.99;98385.34;1748829;80;20226;-85
2022/02/25 07:53:56;;;;;;;;;;;;;;;3.88;81.29;98390.03;1754275;80;24773;-85
2022/02/25 07:56:23;;;;;;;;;;;;;;;3.90;81.57;98396.00;1754179;80;21948;-85
2022/02/25 07:58:49;;;;;;;;;;;;;;;3.91;81.88;98400.27;1762361;80;25955;-85
2022/02/25 08:01:15;;;;;;;;;;;;;;;3.89;82.14;98399.48;1757541;80;24483;-85
2022/02/25 08:03:41;;;;;;;;;;;;;;;3.89;82.38;98400.78;1761278;79;20280;-85
2022/02/25 08:06:08;;;;;;;;;;;;;;;3.87;82.58;98403.91;1749435;80;24943;-85
2022/02/25 08:08:34;;;;;;;;;;;;;;;3.88;82.82;98397.80;1759351;80;21985;-85
2022/02/25 08:11:00;;;;;;;;;;;;;;;3.86;83.03;98398.34;1737731;81;26132;-86
2022/02/25 08:13:26;;;;;;;;;;;;;;;3.86;83.26;98403.06;1734293;82;24505;-86
2022/02/25 08:15:53;;;;;;;;;;;;;;;3.88;83.49;98399.09;1727139;82;20238;-87
2022/02/25 08:18:19;;;;;;;;;;;;;;;3.84;83.70;98395.81;1727386;82;24736;-87
2022/02/25 08:20:45;;;;;;;;;;;;;;;3.88;83.92;98393.91;1726085;82;21948;-87
2022/02/25 08:23:11;;;;;;;;;;;;;;;3.93;84.17;98399.77;1727553;82;26010;-86
2022/02/25 08:25:37;;;;;;;;;;;;;;;3.93;84.39;98405.75;1699973;84;24541;-87
2022/02/25 08:28:07;;;;;;;;;;;;;;;3.89;84.53;98409.84;1677004;83;20323;-86
2022/02/25 08:30:34;;;;;;;;;;;;;;;3.85;84.65;98409.59;1696727;84;24739;-83
2022/02/25 08:33:02;;;;;;;;;;;;;;;3.77;84.80;98406.88;1695538;83;22043;-87
2022/02/25 08:35:29;;;;;;;;;;;;;;;3.69;84.92;98412.00;1686045;83;25482;-87
2022/02/25 08:37:57;;;;;;;;;;;;;;;3.71;85.18;98412.76;1679071;84;24503;-86
2022/02/25 08:40:28;;;;;;;;;;;;;;;3.70;85.45;98412.39;1664969;84;20309;-87
2022/02/25 08:42:51;;;;;;;;;;;;;;;3.71;85.72;98420.07;1684175;84;24985;-87
2022/02/25 08:45:17;;;;;;;;;;;;;;;3.69;85.99;98424.94;1669428;85;21944;-87
2022/02/25 08:47:44;;;;;;;;;;;;;;;3.68;86.23;98424.55;1721130;82;25965;-83
2022/02/25 08:50:12;;;;;;;;;;;;;;;3.63;86.45;98427.34;1720347;82;25056;-87
2022/02/25 08:52:38;;;;;;;;;;;;;;;3.59;86.65;98429.67;1731606;82;20259;-83
2022/02/25 08:55:04;;;;;;;;;;;;;;;3.51;86.77;98430.43;1695037;83;24831;-86
2022/02/25 08:57:30;;;;;;;;;;;;;;;3.45;86.92;98428.09;1674085;84;21960;-86
2022/02/25 08:59:56;;;;;;;;;;;;;;;3.45;87.15;98433.72;1675451;84;21015;-88
2022/02/25 09:02:23;;;;;;;;;;;;;;;3.49;87.39;98437.40;1681057;84;24492;-86
2022/02/25 09:04:49;;;;;;;;;;;;;;;3.51;87.70;98440.78;1678069;84;20227;-86
2022/02/25 09:07:16;;;;;;;;;;;;;;;3.51;87.88;98441.23;1730044;81;24841;-86
2022/02/25 09:09:42;;;;;;;;;;;;;;;3.49;88.07;98438.70;1729470;82;21891;-86
2022/02/25 09:12:10;;;;;;;;;;;;;;;3.42;88.14;98439.88;1757269;80;26126;-86
2022/02/25 09:14:40;;;;;;;;;;;;;;;3.40;88.29;98444.70;1756836;80;23999;-85
2022/02/25 09:17:08;;;;;;;;;;;;;;;3.36;88.44;98439.67;1766137;79;20704;-84
2022/02/25 09:19:34;;;;;;;;;;;;;;;3.32;88.55;98443.74;1758648;80;24797;-84
2022/02/25 09:22:02;;;;;;;;;;;;;;;3.29;88.70;98440.81;1762229;80;22903;-84
2022/02/25 09:24:29;;;;;;;;;;;;;;;3.32;88.96;98448.91;1762218;79;25975;-85
2022/02/25 09:26:57;;;;;;;;;;;;;;;3.32;89.17;98443.74;1745196;80;20678;-85
2022/02/25 09:29:23;;;;;;;;;;;;;;;3.27;89.34;98443.91;1767116;80;20237;-84
2022/02/25 09:31:50;;;;;;;;;;;;;;;3.26;89.52;98446.13;1761738;79;24896;-84
2022/02/25 09:34:18;;;;;;;;;;;;;;;3.25;89.72;98446.17;1760243;80;22980;-85
2022/02/25 09:36:45;;;;;;;;;;;;;;;3.27;89.95;98446.48;1764758;80;25912;-85
2022/02/25 09:39:11;;;;;;;;;;;;;;;3.31;90.21;98448.52;1761653;80;24587;-85
2022/02/25 09:41:38;;;;;;;;;;;;;;;3.27;90.39;98449.08;1765405;80;20330;-85
2022/02/25 09:44:05;;;;;;;;;;;;;;;3.19;90.49;98453.73;1766224;80;24732;-86
2022/02/25 09:46:32;;;;;;;;;;;;;;;3.18;90.66;98455.08;1757271;80;22035;-86
2022/02/25 09:48:59;;;;;;;;;;;;;;;3.19;90.90;98455.02;1758823;80;25995;-86
2022/02/25 09:51:26;;;;;;;;;;;;;;;3.23;91.18;98457.02;1762463;80;24474;-86
2022/02/25 09:53:52;;;;;;;;;;;;;;;3.34;91.59;98466.03;1763723;79;20467;-86
2022/02/25 09:56:18;;;;;;;;;;;;;;;3.45;91.98;98464.31;1755192;80;25338;-86
2022/02/25 09:58:45;;;;;;;;;;;;;;;3.50;92.22;98464.96;1762866;80;22045;-86
2022/02/25 10:01:11;;;;;;;;;;;;;;;3.52;92.43;98463.16;1766905;80;25981;-86
2022/02/25 10:03:38;;;;;;;;;;;;;;;3.52;92.65;98457.98;1763673;80;24416;-85
2022/02/25 10:06:08;;;;;;;;;;;;;;;3.46;92.73;98459.98;1763366;79;20225;-85
2022/02/25 10:08:35;;;;;;;;;;;;;;;3.44;92.87;98461.33;1774569;80;24861;-85
2022/02/25 10:11:02;;;;;;;;;;;;;;;3.40;93.02;98459.77;1770991;80;21925;-86
2022/02/25 10:13:30;;;;;;;;;;;;;;;3.39;93.20;98459.38;1758244;80;26678;-86
2022/02/25 10:15:58;;;;;;;;;;;;;;;3.43;93.44;98466.59;1758484;80;24388;-86
2022/02/25 10:18:26;;;;;;;;;;;;;;;3.53;93.76;98473.06;1761501;80;20522;-85
2022/02/25 10:21:03;;;;;;;;;;;;;;;3.64;94.16;98470.42;1762722;80;25477;-86
2022/02/25 10:23:34;;;;;;;;;;;;;;;3.75;94.57;98473.41;1758401;80;23041;-86
2022/02/25 10:26:17;;;;;;;;;;;;;;;3.82;94.88;98476.56;1767032;80;26002;-86
2022/02/25 10:28:48;;;;;;;;;;;;;;;3.91;95.22;98478.78;1775201;79;24525;-86
2022/02/25 10:31:16;;;;;;;;;;;;;;;3.87;95.39;98478.98;1770581;79;20323;-86
2022/02/25 10:33:42;;;;;;;;;;;;;;;3.92;95.63;98482.21;1766383;80;24953;-84
2022/02/25 10:36:08;;;;;;;;;;;;;;;3.96;95.87;98483.31;1762190;79;21920;-86
2022/02/25 10:38:38;;;;;;;;;;;;;;;4.01;96.06;98484.40;1762462;80;26024;-86
2022/02/25 10:41:04;;;;;;;;;;;;;;;3.96;96.16;98484.60;1767931;80;24545;-86
2022/02/25 10:43:31;;;;;;;;;;;;;;;3.91;96.17;98494.77;1760281;80;20240;-86
2022/02/25 10:46:03;;;;;;;;;;;;;;;3.85;96.23;98495.86;1757009;79;24807;-86
2022/02/25 10:48:33;;;;;;;;;;;;;;;3.84;96.27;98499.80;1756916;80;22070;-86
2022/02/25 10:51:01;;;;;;;;;;;;;;;3.88;96.41;98494.88;1763026;80;26247;-86
2022/02/25 10:53:31;;;;;;;;;;;;;;;3.81;96.47;98501.23;1762537;80;25365;-86
2022/02/25 10:56:05;;;;;;;;;;;;;;;3.77;96.54;98503.94;1763319;80;20511;-86
2022/02/25 10:58:38;;;;;;;;;;;;;;;3.73;96.62;98493.33;1768529;80;24827;-86
2022/02/25 11:01:04;;;;;;;;;;;;;;;3.75;96.77;98490.68;1763306;80;22539;-86
2022/02/25 11:03:30;;;;;;;;;;;;;;;3.83;97.02;98499.41;1768413;80;26588;-87
2022/02/25 11:05:57;;;;;;;;;;;;;;;3.91;97.36;98488.29;1760612;79;24400;-86
2022/02/25 11:08:23;;;;;;;;;;;;;;;4.05;97.76;98480.77;1763569;80;20205;-86
2022/02/25 11:10:49;;;;;;;;;;;;;;;4.09;98.05;98483.63;1690054;83;25408;-86
2022/02/25 11:13:17;;;;;;;;;;;;;;;4.15;98.35;98481.59;1710847;82;22024;-86
2022/02/25 11:15:43;;;;;;;;;;;;;;;4.32;98.76;98480.02;1706632;83;25957;-87
2022/02/25 11:18:10;;;;;;;;;;;;;;;4.60;99.43;98475.30;1706660;83;24633;-86
2022/02/25 11:20:43;;;;;;;;;;;;;;;4.83;100.00;98471.66;1697628;83;20218;-88
2022/02/25 11:23:10;;;;;;;;;;;;;;;5.00;100.00;98474.31;1693857;84;24745;-88
2022/02/25 11:25:37;;;;;;;;;;;;;;;5.16;100.00;98474.44;1696236;84;22089;-87
2022/02/25 11:28:09;;;;;;;;;;;;;;;5.23;100.00;98477.13;1688067;83;22514;-87
2022/02/25 11:30:40;;;;;;;;;;;;;;;5.29;100.00;98475.06;1686906;84;24613;-87
2022/02/25 11:33:15;;;;;;;;;;;;;;;5.25;100.00;98474.83;1701823;83;20284;-88
2022/02/25 11:35:51;;;;;;;;;;;;;;;5.21;100.00;98473.30;1704279;83;24733;-88
2022/02/25 11:38:30;;;;;;;;;;;;;;;5.20;100.00;98470.77;1723716;82;21976;-89
2022/02/25 11:41:06;;;;;;;;;;;;;;;5.19;100.00;98472.52;1710171;83;26770;-88
2022/02/25 11:43:40;;;;;;;;;;;;;;;5.23;100.00;98470.19;1711429;81;25337;-84
2022/02/25 11:46:07;;;;;;;;;;;;;;;5.27;100.00;98466.98;1697353;83;20274;-86
2022/02/25 11:48:40;;;;;;;;;;;;;;;5.37;100.00;98469.52;1698171;84;25476;-88
2022/02/25 11:51:30;;;;;;;;;;;;;;;5.42;100.00;98465.78;1715538;83;22071;-87
2022/02/25 11:53:58;;;;;;;;;;;;;;;5.35;100.00;98459.65;1688354;84;26212;-89
2022/02/25 11:56:30;;;;;;;;;;;;;;;5.27;100.00;98463.94;1667348;83;24434;-84
2022/02/25 11:58:57;;;;;;;;;;;;;;;5.24;100.00;98461.92;1712216;82;20323;-87
2022/02/25 12:01:23;;;;;;;;;;;;;;;5.24;100.00;98464.06;1714347;82;25703;-87
2022/02/25 12:04:05;;;;;;;;;;;;;;;5.27;100.00;98452.26;1714191;83;21975;-87
2022/02/25 12:06:50;;;;;;;;;;;;;;;5.43;100.00;98460.98;1711087;83;26805;-86
2022/02/25 12:09:18;;;;;;;;;;;;;;;5.60;100.00;98460.61;1709011;83;24527;-87
2022/02/25 12:11:44;;;;;;;;;;;;;;;5.74;100.00;98459.00;1707753;82;20249;-86
2022/02/25 12:14:10;;;;;;;;;;;;;;;5.84;100.00;98462.81;1695355;83;24882;-86
2022/02/25 12:16:46;;;;;;;;;;;;;;;5.94;100.00;98463.24;1727973;82;20314;-87
2022/02/25 12:19:13;;;;;;;;;;;;;;;5.98;100.00;98466.05;1714889;83;25969;-87
2022/02/25 12:21:41;;;;;;;;;;;;;;;6.01;100.00;98455.50;1717119;83;24505;-87
2022/02/25 12:24:11;;;;;;;;;;;;;;;6.04;100.00;98464.45;1725334;82;20298;-88
2022/02/25 12:26:41;;;;;;;;;;;;;;;5.97;100.00;98461.77;1711283;82;24360;-88
2022/02/25 12:29:16;;;;;;;;;;;;;;;5.89;100.00;98463.45;1736742;82;22068;-86
2022/02/25 12:31:47;;;;;;;;;;;;;;;5.84;100.00;98457.61;1697198;83;21160;-84
2022/02/25 12:34:24;;;;;;;;;;;;;;;5.77;100.00;98467.95;1706872;83;24594;-87
2022/02/25 12:36:51;;;;;;;;;;;;;;;5.68;100.00;98465.79;1696801;84;20285;-86
2022/02/25 12:39:22;;;;;;;;;;;;;;;5.64;100.00;98461.67;1700155;83;24763;-85
2022/02/25 12:41:50;;;;;;;;;;;;;;;5.62;100.00;98454.90;1701898;83;21930;-85
2022/02/25 12:44:20;;;;;;;;;;;;;;;5.62;100.00;98465.28;1702775;83;25907;-84
2022/02/25 12:46:51;;;;;;;;;;;;;;;5.44;100.00;98440.61;1705181;83;25430;-86
2022/02/25 12:49:18;;;;;;;;;;;;;;;5.48;100.00;98462.89;1711418;83;20216;-86
2022/02/25 12:51:44;;;;;;;;;;;;;;;5.47;100.00;98466.84;1727689;81;24803;-85
2022/02/25 12:54:12;;;;;;;;;;;;;;;5.42;100.00;98467.08;1704616;83;20246;-85
2022/02/25 12:56:40;;;;;;;;;;;;;;;5.36;100.00;98462.63;1713961;83;25950;-85
2022/02/25 12:59:13;;;;;;;;;;;;;;;5.24;100.00;98466.66;1714396;83;24492;-85
2022/02/25 13:01:41;;;;;;;;;;;;;;;5.06;100.00;98471.44;1712777;83;20353;-85
2022/02/25 13:04:11;;;;;;;;;;;;;;;4.92;100.00;98476.41;1703477;82;25459;-85
2022/02/25 13:06:39;;;;;;;;;;;;;;;4.84;100.00;98482.42;1696979;82;22569;-85